Airfield :
LOGIN :

Register | Disclaimer

   EN    FR    IT 

 










Legend :    VFR   Marginal VFR   IFR   Intensive IFR   Very Intensive IFR
Visi :
Ceiling :
>= 8 km
>= 3000ft
5 to 8 km
1000 to 3000 ft
1500m to 5 km
500 to 1000 ft
800 to 1500m
200 to 500 ft
< 800m
< 200 ft
Symbols :   Thunderstorms  Fog  Heavy snow  Heavy precipitations  Wind > 20 kt
SIGMETs :     Misc.  Thunderstorms  Icing  Turbulence  Mountain Waves  Volcanic Ashes






- Airport Elevation : 128 ft


ETND - Diepholz

CURRENT METAR :
  • 151320Z 25006KT 9999 FEW026 BKN140 20/13 Q1005 BLU

EXPIRED METARs :
  • 151220Z 24005KT 9999 FEW028 SCT330 20/13 Q1006 BLU+
  • 151120Z 27008KT 9999 FEW024 BKN300 19/13 Q1006 BLU+

TAF TAF ETND
Valid from the 15 at 11:00 until the 15 at 20:00 UTC


151032Z 1511/1520 26008KT 9999 NSW SCT100 BKN250
BECMG 1516/1518 27005KT 7000 -RA FEW012 BKN030
TEMPO 1518/1520 28008KT 4000 RA BKN010 BY ETGL



MET'MAP, your aeronautical weather chart ! - Copyright ORBIFLY December 2007 - Disclaimer

ORBIFLY MET'MAP TEAM :

Programming & Development : Alexandra Zaïnal
Concept & Development : Baudouin d'Aumeries
Co-Development & Prog : Marc-Olivier Méhu
Technical & hardware support : Manuel Goepfert

Contact : metmap@orbifly.com




SOURCES & CREDITS :

   NOAA